Flight Track Log - Related Links

Times and Time Zones

All times are in EST time to prevent confusion due to time zone crossing. See the N784BX flight status page for this flight to view local times or setup timezone preferences in your user account.

Time Position Orientation Groundspeed Altitude Reporting Facility
EST Latitude Longitude Course Direction KTS MPH feet Rate Location/Type
Wed 12:24:24 PM 29.6661 -95.2567 North 175 201 800  Level Houston Center
Wed 12:25:19 PM 29.7164 -95.2553 North 208 239 3,100 2,614 Climbing Houston Center
Wed 12:26:05 PM 29.7603 -95.2628 352° North 245 282 5,200 2,776 Climbing Houston Center
Wed 12:26:26 PM 29.7803 -95.2667 350° North 219 252 6,200 2,516 Climbing Houston Center
Wed 12:27:07 PM 29.8250 -95.2708 355° North 237 273 7,800 2,836 Climbing Houston Center
Wed 12:27:21 PM 29.8419 -95.2736 352° North 247 284 8,800 2,951 Climbing Houston Center
Wed 12:28:08 PM 29.8928 -95.2758 358° North 242 278 10,800 2,754 Climbing Houston Center
Wed 12:28:22 PM 29.9178 -95.2767 358° North 265 305 11,600 2,613 Climbing Houston Center
Wed 12:29:10 PM 29.9678 -95.2692 North 263 303 13,500 2,127 Climbing Houston Center
Wed 12:30:12 PM 30.0419 -95.2194 30° Northeast 298 343 15,500 1,935 Climbing Houston Center
Wed 12:31:14 PM 30.1222 -95.1714 27° Northeast 317 365 17,500 1,790 Climbing Houston Center
Wed 12:32:16 PM 30.2247 -95.1108 27° Northeast 335 386 19,200 1,659 Climbing Houston Center
Wed 12:33:17 PM 30.3131 -95.0589 27° Northeast 346 398 20,900 1,707 Climbing Houston Center
Wed 12:34:19 PM 30.4050 -95.0047 27° Northeast 359 413 22,700 1,645 Climbing Houston Center
Wed 12:35:21 PM 30.4953 -94.9367 33° Northeast 379 436 24,300 1,403 Climbing Houston Center
Wed 12:36:23 PM 30.5894 -94.8633 34° Northeast 401 461 25,600 1,258 Climbing Houston Center
Wed 12:37:25 PM 30.6881 -94.7883 33° Northeast 419 482 26,900 1,113 Climbing Houston Center
Wed 12:38:27 PM 30.7928 -94.7078 33° Northeast 447 514 27,900 1,065 Climbing Houston Center
Wed 12:39:29 PM 30.9233 -94.6064 34° Northeast 468 539 29,100 1,065 Climbing Houston Center
Wed 12:40:31 PM 31.0364 -94.5189 34° Northeast 488 562 30,100 976 Climbing Houston Center
Wed 12:41:32 PM 31.1517 -94.4294 34° Northeast 501 577 31,100 977 Climbing Houston Center
Wed 12:41:57 PM 31.1981 -94.3931 34° Northeast 502 578 31,500 966 Climbing Houston Center
Wed 12:42:59 PM 31.3050 -94.2825 41° Northeast 526 605 32,500 823 Climbing Houston Center
Wed 12:44:01 PM 31.4031 -94.1131 56° Northeast 527 606 33,200 823 Climbing Houston Center
Wed 12:45:03 PM 31.4861 -93.9703 56° Northeast 531 611 34,200 968 Climbing Houston Center
Wed 12:46:05 PM 31.5681 -93.8278 56° Northeast 528 608 35,200 968 Climbing Houston Center
Wed 12:47:07 PM 31.6494 -93.6878 56° Northeast 524 603 36,200 913 Climbing Houston Center
Wed 12:49:09 PM 31.8106 -93.4117 55° Northeast 512 589 38,000 750 Climbing Fort Worth Center
Wed 12:50:11 PM 31.8906 -93.2714 56° Northeast 513 590 38,500 532 Climbing Fort Worth Center
Wed 12:51:13 PM 31.9881 -93.1014 56° Northeast 516 594 39,100 532 Climbing Fort Worth Center
Wed 12:52:15 PM 32.0686 -92.9597 56° Northeast 518 596 39,600 480 Climbing Fort Worth Center
Wed 12:53:18 PM 32.1494 -92.8156 56° Northeast 520 598 40,100 528 Climbing Fort Worth Center
Wed 12:54:20 PM 32.2306 -92.6711 56° Northeast 524 603 40,700 435 Climbing Fort Worth Center
Wed 12:55:22 PM 32.3108 -92.5292 56° Northeast 519 597 41,000 145 Climbing Fort Worth Center
Wed 12:56:24 PM 32.3928 -92.3833 56° Northeast 529 609 41,000  Level Fort Worth Center
Wed 12:57:26 PM 32.4758 -92.2347 56° Northeast 539 620 41,000  Level Fort Worth Center
Wed 12:58:28 PM 32.5758 -92.0544 57° Northeast 544 626 41,000  Level Fort Worth Center
Wed 12:59:30 PM 32.6597 -91.9028 57° Northeast 549 632 41,000  Level Fort Worth Center
Wed 01:00:25 PM 32.7342 -91.7642 57° Northeast 552 635 41,000  Level Memphis Center
Wed 01:01:27 PM 32.8181 -91.6111 57° Northeast 555 639 41,000  Level Memphis Center
Wed 01:02:59 PM 32.9439 -91.3794 57° Northeast 555 639 41,000  Level Houston Center
Wed 01:03:38 PM 32.9961 -91.2883 56° Northeast 553 636 41,000  Level Fort Worth Center
Wed 01:04:32 PM 33.0692 -91.1497 58° Northeast 554 638 41,000  Level Memphis Center
Wed 01:05:34 PM 33.1692 -90.9633 57° Northeast 555 639 41,000  Level Memphis Center
Wed 01:06:36 PM 33.2525 -90.8092 57° Northeast 554 638 41,000  Level Memphis Center
Wed 01:07:37 PM 33.3350 -90.6539 58° Northeast 554 638 41,000  Level Memphis Center
Wed 01:08:39 PM 33.4183 -90.4978 57° Northeast 555 639 41,000  Level Memphis Center
Wed 01:09:41 PM 33.5011 -90.3406 58° Northeast 555 639 41,000  Level Memphis Center
Wed 01:10:43 PM 33.5842 -90.1856 57° Northeast 553 636 41,000  Level Memphis Center
Wed 01:11:44 PM 33.6664 -90.0272 58° Northeast 555 639 41,000  Level Memphis Center
Wed 01:12:46 PM 33.7492 -89.8703 58° Northeast 556 640 41,000  Level Memphis Center
Wed 01:13:48 PM 33.8383 -89.6969 58° Northeast 556 640 41,000  Level Memphis Center
Wed 01:14:50 PM 33.9208 -89.5375 58° Northeast 557 641 41,000  Level Memphis Center
Wed 01:15:52 PM 34.0169 -89.3517 58° Northeast 558 642 41,000  Level Memphis Center
Wed 01:16:54 PM 34.0981 -89.1917 58° Northeast 557 641 41,000  Level Memphis Center
Wed 01:17:56 PM 34.1783 -89.0328 59° Northeast 554 638 41,000  Level Memphis Center
Wed 01:18:57 PM 34.2606 -88.8731 58° Northeast 556 640 41,000  Level Memphis Center
Wed 01:19:59 PM 34.3494 -88.6969 59° Northeast 555 639 41,000  Level Memphis Center
Wed 01:21:01 PM 34.4300 -88.5375 58° Northeast 555 639 41,000  Level Memphis Center
Wed 01:22:03 PM 34.5108 -88.3772 58° Northeast 556 640 41,000  Level Memphis Center
Wed 01:23:05 PM 34.5911 -88.2189 58° Northeast 552 635 41,000  Level Memphis Center
Wed 01:24:07 PM 34.6706 -88.0586 59° Northeast 551 634 41,000  Level Memphis Center
Wed 01:25:09 PM 34.7500 -87.8972 59° Northeast 551 634 41,000  Level Memphis Center
Wed 01:26:11 PM 34.8303 -87.7339 59° Northeast 555 639 41,000  Level Memphis Center
Wed 01:27:12 PM 34.9108 -87.5700 59° Northeast 558 642 41,000  Level Memphis Center
Wed 01:28:14 PM 34.9906 -87.4075 59° Northeast 556 640 41,000  Level Memphis Center
Wed 01:28:39 PM 35.0383 -87.3092 59° Northeast 558 642 41,000  Level Memphis Center
Wed 01:29:41 PM 35.1178 -87.1433 60° Northeast 562 647 41,000  Level Memphis Center
Wed 01:30:43 PM 35.1978 -86.9778 59° Northeast 563 648 41,000  Level Memphis Center
Wed 01:31:44 PM 35.2803 -86.8053 60° Northeast 561 646 41,000  Level Memphis Center
Wed 01:32:46 PM 35.3611 -86.6375 59° Northeast 565 650 41,000  Level Memphis Center
Wed 01:33:48 PM 35.4394 -86.4700 60° Northeast 565 650 41,000  Level Memphis Center
Wed 01:34:50 PM 35.5183 -86.3044 60° Northeast 562 647 41,000  Level Memphis Center
Wed 01:35:52 PM 35.6014 -86.1264 60° Northeast 565 650 41,000  Level Memphis Center
Wed 01:36:53 PM 35.6761 -85.9681 60° Northeast 565 650 41,000  Level Memphis Center
Wed 01:37:55 PM 35.7592 -85.7894 60° Northeast 568 654 41,000  Level Memphis Center
Wed 01:38:57 PM 35.8375 -85.6200 60° Northeast 567 652 41,000  Level Memphis Center
Wed 01:40:36 PM 35.9631 -85.3467 60° Northeast 569 655 41,000  Level Memphis Center
Wed 01:41:17 PM 36.0269 -85.2097 60° Northeast 569 655 41,000  Level Indianapolis Center
Wed 01:42:19 PM 36.1056 -85.0356 61° Northeast 570 656 41,000  Level Indianapolis Center
Wed 01:43:21 PM 36.1839 -84.8606 61° Northeast 571 657 41,000  Level Indianapolis Center
Wed 01:44:23 PM 36.2628 -84.6872 61° Northeast 571 657 41,000  Level Indianapolis Center
Wed 01:45:24 PM 36.3403 -84.5150 61° Northeast 567 652 41,000  Level Indianapolis Center
Wed 01:46:26 PM 36.4153 -84.3417 62° Northeast 567 652 41,000  Level Indianapolis Center
Wed 01:47:28 PM 36.4931 -84.1683 61° Northeast 571 657 41,000  Level Indianapolis Center
Wed 01:48:29 PM 36.5806 -83.9700 61° Northeast 569 655 41,000  Level Indianapolis Center
Wed 01:49:31 PM 36.6575 -83.7981 61° Northeast 569 655 41,000  Level Indianapolis Center
Wed 01:50:33 PM 36.7328 -83.6275 61° Northeast 561 646 41,000  Level Indianapolis Center
Wed 01:51:35 PM 36.8078 -83.4550 61° Northeast 563 648 41,000  Level Indianapolis Center
Wed 01:52:36 PM 36.8822 -83.2814 62° Northeast 567 652 41,000  Level Indianapolis Center
Wed 01:53:38 PM 36.9572 -83.1053 62° Northeast 568 654 41,000  Level Indianapolis Center
Wed 01:54:40 PM 37.0344 -82.9278 61° Northeast 565 650 41,000  Level Indianapolis Center
Wed 01:55:41 PM 37.1094 -82.7497 62° Northeast 566 651 41,000  Level Indianapolis Center
Wed 01:56:43 PM 37.1839 -82.5747 62° Northeast 564 649 41,000  Level Indianapolis Center
Wed 01:57:45 PM 37.2711 -82.3708 62° Northeast 566 651 41,000  Level Indianapolis Center
Wed 01:58:46 PM 37.3439 -82.1939 63° Northeast 569 655 41,000  Level Indianapolis Center
Wed 01:59:48 PM 37.4178 -82.0175 62° Northeast 569 655 41,000  Level Indianapolis Center
Wed 02:00:50 PM 37.4908 -81.8406 62° Northeast 569 655 41,000  Level Indianapolis Center
Wed 02:01:52 PM 37.5633 -81.6622 63° Northeast 570 656 41,000  Level Indianapolis Center
Wed 02:02:53 PM 37.6378 -81.4803 63° Northeast 573 659 41,000  Level Indianapolis Center
Wed 02:03:55 PM 37.7089 -81.3036 63° Northeast 575 662 41,000  Level Indianapolis Center
Wed 02:04:57 PM 37.7783 -81.0836 68° East 583 671 41,000  Level Indianapolis Center
Wed 02:05:58 PM 37.7961 -80.8872 83° East 575 662 41,000  Level Indianapolis Center
Wed 02:07:00 PM 37.8103 -80.6906 85° East 575 662 41,000  Level Indianapolis Center
Wed 02:07:53 PM 37.8203 -80.5028 86° East 574 661 41,000  Level Washington Center
Wed 02:08:53 PM 37.8347 -80.3011 85° East 569 655 41,000  Level Washington Center
Wed 02:09:53 PM 37.8467 -80.0967 86° East 569 655 41,000  Level Washington Center
Wed 02:10:54 PM 37.8603 -79.9003 85° East 574 661 41,000  Level Washington Center
Wed 02:11:55 PM 37.8717 -79.6931 86° East 574 661 41,000  Level Washington Center
Wed 02:12:53 PM 37.8825 -79.4911 86° East 569 655 41,000  Level Washington Center
Wed 02:13:54 PM 37.8953 -79.2864 85° East 575 662 41,000  Level Washington Center
Wed 02:14:55 PM 37.9056 -79.0869 86° East 575 662 41,000  Level Washington Center
Wed 02:15:53 PM 37.9322 -78.8800 81° East 575 662 41,000  Level Washington Center
Wed 02:16:53 PM 37.9536 -78.6994 81° East 575 662 41,000  Level Washington Center
Wed 02:17:55 PM 37.9797 -78.4975 81° East 575 662 41,000  Level Washington Center
Wed 02:18:55 PM 38.0011 -78.2928 82° East 575 662 41,000  Level Washington Center
Wed 02:19:53 PM 38.0428 -78.0992 75° East 575 662 41,000  Level Washington Center
Wed 02:20:54 PM 38.1297 -77.9225 58° Northeast 567 652 41,000  Level Washington Center
Wed 02:21:55 PM 38.2186 -77.7431 58° Northeast 574 661 41,000  Level Washington Center
Wed 02:22:55 PM 38.3031 -77.5681 58° Northeast 579 666 41,000  Level Washington Center
Wed 02:23:54 PM 38.3892 -77.3956 57° Northeast 584 672 41,000 -202 Level Washington Center
Wed 02:24:54 PM 38.4772 -77.2175 58° Northeast 584 672 40,600 -1,160 Descending Washington Center
Wed 02:25:53 PM 38.5628 -77.0386 59° Northeast 584 672 38,700 -2,350 Descending Washington Center
Wed 02:26:54 PM 38.6503 -76.8569 58° Northeast 590 679 35,900 -2,754 Descending Washington Center
Wed 02:27:55 PM 38.7561 -76.6858 52° Northeast 601 692 33,100 -2,924 Descending Washington Center
Wed 02:28:53 PM 38.8847 -76.5383 42° Northeast 608 700 30,100 -3,025 Descending Washington Center
Wed 02:29:54 PM 39.0108 -76.3956 41° Northeast 601 692 27,100 -2,705 Descending Washington Center
Wed 02:30:55 PM 39.1303 -76.2553 42° Northeast 596 686 24,600 -1,550 Descending Washington Center
Wed 02:31:54 PM 39.2394 -76.1275 42° Northeast 557 641 24,000 -504 Descending Washington Center
Wed 02:32:54 PM 39.3544 -76.0131 38° Northeast 530 610 23,600 -1,989 Descending Washington Center
Wed 02:35:01 PM 39.5833 -75.8000 36° Northeast 420 483 17,800 -2,631 Descending Philadelphia TRACON
Wed 02:36:01 PM 39.6667 -75.7167 38° Northeast 368 423 15,400 -2,300 Descending Philadelphia TRACON
Wed 02:37:01 PM 39.7500 -75.6333 38° Northeast 365 420 13,200 -1,143 Descending Philadelphia TRACON
Wed 02:38:07 PM 39.8333 -75.5667 32° Northeast 327 376 13,000 -95 Descending Philadelphia TRACON
Wed 02:39:07 PM 39.9167 -75.5000 32° Northeast 351 404 13,000  Level Philadelphia TRACON
Wed 02:40:07 PM 39.9833 -75.4167 44° Northeast 335 386 13,000  Level Philadelphia TRACON
Wed 02:41:01 PM 40.0667 -75.3500 31° Northeast 342 394 13,000  Level Philadelphia TRACON
Wed 02:42:01 PM 40.1333 -75.2833 37° Northeast 347 399 13,000 -625 Level Philadelphia TRACON
Wed 02:44:13 PM 40.3000 -75.1333 34° Northeast 308 354 11,000 -1,364 Descending New York TRACON
Wed 02:45:19 PM 40.3667 -75.0500 44° Northeast 314 361 8,500 -2,095 Descending New York TRACON
Wed 02:46:19 PM 40.4167 -74.9667 52° Northeast 297 342 6,600 -1,800 Descending New York TRACON
Wed 02:47:19 PM 40.4667 -74.9000 45° Northeast 274 315 4,900 -1,300 Descending New York TRACON
Wed 02:48:19 PM 40.4833 -74.8000 78° East 275 316 4,000 -450 Descending New York TRACON
Wed 02:49:19 PM 40.5000 -74.7000 78° East 267 307 4,000  Level New York TRACON
Wed 02:50:19 PM 40.5167 -74.6167 75° East 260 299 4,000 -450 Level New York TRACON
Wed 02:51:19 PM 40.5833 -74.5667 30° Northeast 257 296 3,100 -500 Descending New York TRACON
Wed 02:52:19 PM 40.6500 -74.5500 11° North 245 282 3,000 -100 Descending New York TRACON
Wed 02:53:19 PM 40.7167 -74.5333 11° North 241 277 2,900  Descending New York TRACON
Wed 02:54:19 PM 40.7833 -74.5000 21° North 252 290 3,000  Climbing New York TRACON
Wed 02:55:19 PM 40.8500 -74.4667 21° North 243 280 2,900 -50 Descending New York TRACON
Wed 02:56:19 PM 40.8833 -74.3833 62° Northeast 246 283 2,900 53 Level New York TRACON
Wed 02:57:13 PM 40.9167 -74.3167 56° Northeast 249 287 3,000 -368 Climbing New York TRACON
Wed 02:58:13 PM 40.9500 -74.2333 62° Northeast 258 297 2,200 -524 Descending New York TRACON
Wed 02:59:19 PM 40.9833 -74.1500 62° Northeast 229 264 1,900 -100 Descending New York TRACON
Wed 03:00:13 PM 41.0000 -74.1000 66° East 185 213 2,000 50 Climbing New York TRACON
Wed 03:01:19 PM 40.9667 -74.0500 131° Southeast 191 220 2,000 -150 Level New York TRACON
Wed 03:02:13 PM 40.9333 -74.0500 180° South 153 176 1,700 -474 Descending New York TRACON
Wed 03:03:13 PM 40.9000 -74.0333 159° South 146 168 1,100 -650 Descending New York TRACON
Wed 03:04:13 PM 40.8667 -74.0500 201° Southwest 124 143 400 -700 Descending New York TRACON

Login

Don't have an account? Register now (free) for customized features, flight alerts, and more!